createdAt,value
2022-10-16T00:03:00.124Z,13.63
2022-10-16T00:07:59.381Z,13.59
2022-10-16T00:12:58.509Z,13.55
2022-10-16T00:17:58.934Z,13.53
2022-10-16T00:22:58.016Z,13.51
2022-10-16T00:27:57.053Z,13.49
2022-10-16T00:32:55.919Z,13.39
2022-10-16T00:37:56.148Z,13.34
2022-10-16T00:42:55.123Z,13.08
2022-10-16T00:47:56.340Z,12.93
2022-10-16T00:52:58.213Z,12.88
2022-10-16T00:57:57.669Z,12.85
2022-10-16T01:02:57.938Z,12.87
2022-10-16T01:08:04.790Z,12.86
2022-10-16T01:13:07.875Z,12.84
2022-10-16T01:18:13.580Z,12.76
2022-10-16T01:23:24.090Z,12.75
2022-10-16T01:28:30.424Z,12.74
2022-10-16T01:33:36.434Z,12.76
2022-10-16T01:38:38.780Z,12.84
2022-10-16T01:43:43.809Z,12.86
2022-10-16T01:48:43.471Z,12.89
2022-10-16T01:53:43.963Z,12.88
2022-10-16T01:58:51.436Z,12.83
2022-10-16T02:03:54.961Z,12.76
2022-10-16T02:08:53.675Z,12.59
2022-10-16T02:13:59.106Z,12.32
2022-10-16T02:18:58.105Z,12.23
2022-10-16T02:24:02.612Z,12.18
2022-10-16T02:29:08.101Z,12.15
2022-10-16T02:34:08.893Z,12.15
2022-10-16T02:39:09.256Z,12.10
2022-10-16T02:44:09.389Z,12.15
2022-10-16T02:49:08.130Z,12.16
2022-10-16T02:54:06.908Z,12.16
2022-10-16T02:59:05.957Z,12.14
2022-10-16T03:04:06.777Z,12.10
2022-10-16T03:09:05.705Z,12.08
2022-10-16T03:14:04.553Z,11.88
2022-10-16T03:19:03.624Z,11.77
2022-10-16T03:24:03.844Z,11.75
2022-10-16T03:29:03.808Z,11.76
2022-10-16T03:34:02.646Z,11.76
2022-10-16T03:39:01.455Z,11.74
2022-10-16T03:44:01.666Z,11.68
2022-10-16T03:49:00.427Z,11.64
2022-10-16T03:53:59.233Z,11.63
2022-10-16T03:58:58.492Z,11.61
2022-10-16T04:03:58.640Z,11.60
2022-10-16T04:08:57.429Z,11.53
2022-10-16T04:13:56.232Z,11.37
2022-10-16T04:18:54.989Z,11.28
2022-10-16T04:23:55.109Z,11.21
2022-10-16T04:28:53.900Z,11.15
2022-10-16T04:33:52.788Z,11.15
2022-10-16T04:38:51.615Z,11.00
2022-10-16T04:43:51.937Z,10.99
2022-10-16T04:48:50.750Z,11.03
2022-10-16T04:53:49.585Z,11.06
2022-10-16T04:58:48.452Z,11.07
2022-10-16T05:03:48.673Z,11.09
2022-10-16T05:08:47.766Z,11.13
2022-10-16T05:13:46.697Z,11.10
2022-10-16T05:18:45.497Z,10.96
2022-10-16T05:23:45.917Z,10.84
2022-10-16T05:28:45.382Z,10.74
2022-10-16T05:33:45.161Z,10.66
2022-10-16T05:38:45.575Z,10.68
2022-10-16T05:43:44.342Z,10.74
2022-10-16T05:48:43.188Z,10.78
2022-10-16T05:58:45.395Z,11.07
2022-10-16T06:03:44.839Z,11.05
2022-10-16T06:08:45.083Z,11.12
2022-10-16T06:13:48.655Z,11.21
2022-10-16T06:18:48.324Z,11.26
2022-10-16T06:23:48.053Z,11.33
2022-10-16T06:28:48.596Z,11.42
2022-10-16T06:33:48.094Z,11.59
2022-10-16T06:38:47.052Z,11.80
2022-10-16T06:43:47.455Z,11.98
2022-10-16T06:48:46.180Z,12.10
2022-10-16T06:54:04.111Z,12.25
2022-10-16T06:59:05.654Z,12.30
2022-10-16T07:04:04.605Z,12.43
2022-10-16T07:09:07.554Z,12.62
2022-10-16T07:14:17.099Z,12.72
2022-10-16T07:19:18.004Z,12.85
2022-10-16T07:24:18.589Z,12.99
2022-10-16T07:29:20.895Z,13.14
2022-10-16T07:34:22.642Z,13.26
2022-10-16T07:39:31.725Z,13.35
2022-10-16T07:44:32.109Z,13.51
2022-10-16T07:49:30.909Z,13.66
2022-10-16T07:54:29.716Z,13.87
2022-10-16T07:59:28.949Z,14.07
2022-10-16T08:04:30.608Z,14.22
2022-10-16T08:09:29.646Z,14.24
2022-10-16T08:14:29.579Z,14.49
2022-10-16T08:19:30.139Z,14.67
2022-10-16T08:24:31.906Z,14.78
2022-10-16T08:29:30.772Z,15.06
2022-10-16T08:34:30.978Z,15.55
2022-10-16T08:39:30.511Z,16.28
2022-10-16T08:45:44.683Z,17.41
2022-10-16T08:50:50.656Z,18.45
2022-10-16T08:55:53.200Z,19.45
2022-10-16T09:00:56.509Z,20.42
2022-10-16T09:06:09.772Z,21.40
2022-10-16T09:11:15.739Z,22.17
2022-10-16T09:16:22.109Z,23.16
2022-10-16T09:21:28.787Z,23.95
2022-10-16T09:26:27.715Z,24.53
2022-10-16T09:31:26.628Z,25.28
2022-10-16T09:36:29.721Z,25.71
2022-10-16T09:41:28.773Z,26.41
2022-10-16T09:46:41.378Z,27.13
2022-10-16T09:51:42.014Z,26.97
2022-10-16T09:56:57.073Z,27.71
2022-10-16T10:02:03.794Z,27.64
2022-10-16T10:07:40.733Z,27.90
2022-10-16T10:12:51.777Z,27.68
2022-10-16T10:17:52.910Z,28.15
2022-10-16T10:22:52.950Z,28.30
2022-10-16T10:28:08.847Z,28.40
2022-10-16T10:33:26.511Z,28.40
2022-10-16T10:38:46.349Z,28.88
2022-10-16T10:43:57.842Z,28.90
2022-10-16T10:49:15.407Z,27.74
2022-10-16T10:54:20.235Z,28.83
2022-10-16T10:59:44.661Z,29.29
2022-10-16T11:05:01.455Z,28.98
2022-10-16T11:10:07.373Z,29.54
2022-10-16T11:15:16.958Z,29.21
2022-10-16T11:20:20.315Z,28.57
2022-10-16T11:25:25.091Z,27.68
2022-10-16T11:30:27.632Z,27.50
2022-10-16T11:35:34.833Z,28.50
2022-10-16T11:40:42.182Z,28.85
2022-10-16T11:45:44.817Z,29.46
2022-10-16T11:50:51.123Z,29.20
2022-10-16T11:55:51.610Z,29.20
2022-10-16T12:00:58.210Z,29.88
2022-10-16T12:06:08.908Z,30.78
2022-10-16T12:11:22.422Z,31.95
2022-10-16T12:16:26.356Z,31.41
2022-10-16T12:22:26.241Z,31.81
2022-10-16T12:27:31.852Z,32.72
2022-10-16T12:32:49.564Z,32.74
2022-10-16T12:37:48.793Z,32.73
2022-10-16T12:42:49.064Z,32.82
2022-10-16T12:47:52.493Z,33.30
2022-10-16T12:52:51.508Z,33.37
2022-10-16T12:58:09.943Z,33.09
2022-10-16T13:03:37.743Z,33.01
2022-10-16T13:08:57.776Z,33.59
2022-10-16T13:14:06.349Z,34.33
2022-10-16T13:19:18.331Z,34.06
2022-10-16T13:24:30.743Z,34.19
2022-10-16T13:29:37.610Z,34.63
2022-10-16T13:34:46.792Z,34.91
2022-10-16T13:39:45.538Z,34.39
2022-10-16T13:44:51.098Z,34.76
2022-10-16T13:50:01.946Z,34.79
2022-10-16T13:55:02.513Z,34.72
2022-10-16T14:00:04.637Z,34.58
2022-10-16T14:05:06.129Z,33.87
2022-10-16T14:10:09.984Z,34.03
2022-10-16T14:15:21.519Z,33.60
2022-10-16T14:20:21.446Z,32.79
2022-10-16T14:25:31.625Z,32.47
2022-10-16T14:30:35.790Z,32.36
2022-10-16T14:35:37.148Z,32.05
2022-10-16T14:40:38.159Z,31.64
2022-10-16T14:45:39.656Z,30.83
2022-10-16T14:50:38.474Z,30.44
2022-10-16T14:55:39.218Z,30.53
2022-10-16T15:00:41.194Z,30.26
2022-10-16T15:05:42.217Z,29.82
2022-10-16T15:10:45.027Z,29.44
2022-10-16T15:15:46.956Z,29.00
2022-10-16T15:20:46.087Z,28.43
2022-10-16T15:25:47.105Z,27.88
2022-10-16T15:30:48.209Z,27.20
2022-10-16T15:35:50.014Z,26.52
2022-10-16T15:40:49.738Z,25.86
2022-10-16T15:46:02.663Z,25.26
2022-10-16T15:51:01.893Z,24.66
2022-10-16T15:56:03.921Z,24.09
2022-10-16T16:01:05.383Z,23.61
2022-10-16T16:06:07.063Z,23.20
2022-10-16T16:11:08.578Z,22.82
2022-10-16T16:16:10.426Z,22.45
2022-10-16T16:21:10.179Z,22.11
2022-10-16T16:26:12.051Z,21.79
2022-10-16T16:31:12.293Z,21.51
2022-10-16T16:36:15.538Z,21.27
2022-10-16T16:41:18.246Z,21.07
2022-10-16T16:46:18.137Z,20.72
2022-10-16T16:51:20.688Z,20.56
2022-10-16T16:56:21.906Z,20.34
2022-10-16T17:01:24.760Z,20.09
2022-10-16T17:06:30.659Z,19.94
2022-10-16T17:11:29.910Z,19.77
2022-10-16T17:16:32.366Z,19.61
2022-10-16T17:21:33.072Z,19.38
2022-10-16T17:26:32.269Z,19.33
2022-10-16T17:31:34.096Z,19.24
2022-10-16T17:36:36.916Z,19.09
2022-10-16T17:41:37.278Z,18.93
2022-10-16T17:46:40.959Z,18.80
2022-10-16T17:52:08.722Z,18.60
2022-10-16T17:57:07.869Z,18.50
2022-10-16T18:02:08.678Z,18.41
2022-10-16T18:07:07.921Z,18.32
2022-10-16T18:12:08.699Z,18.19
2022-10-16T18:17:11.608Z,18.08
2022-10-16T18:22:10.784Z,18.02
2022-10-16T18:27:09.806Z,17.92
2022-10-16T18:32:08.594Z,17.80
2022-10-16T18:37:08.883Z,17.72
2022-10-16T18:42:10.788Z,17.65
2022-10-16T18:47:10.435Z,17.55
2022-10-16T18:52:12.644Z,17.45
2022-10-16T18:57:14.609Z,17.31
2022-10-16T19:02:14.051Z,17.22
2022-10-16T19:07:15.810Z,17.19
2022-10-16T19:12:14.733Z,17.07
2022-10-16T19:17:18.596Z,17.01
2022-10-16T19:22:30.630Z,16.97
2022-10-16T19:34:13.376Z,16.70
2022-10-16T19:39:16.155Z,16.67
2022-10-16T19:44:19.889Z,16.62
2022-10-16T19:49:25.840Z,16.55
2022-10-16T19:54:27.481Z,16.34
2022-10-16T19:59:26.284Z,16.20
2022-10-16T20:04:25.195Z,16.15
2022-10-16T20:09:24.124Z,16.12
2022-10-16T20:14:24.463Z,16.09
2022-10-16T20:19:23.469Z,15.92
2022-10-16T20:24:22.717Z,15.88
2022-10-16T20:29:21.705Z,15.86
2022-10-16T20:34:21.984Z,15.84
2022-10-16T20:39:20.870Z,15.76
2022-10-16T20:44:19.835Z,15.74
2022-10-16T20:49:28.785Z,15.70
2022-10-16T20:54:39.010Z,15.55
2022-10-16T20:59:37.964Z,15.47
2022-10-16T21:04:36.872Z,15.39
2022-10-16T21:09:35.817Z,15.35
2022-10-16T21:14:42.307Z,15.26
2022-10-16T21:19:45.427Z,15.04
2022-10-16T21:24:44.331Z,14.87
2022-10-16T21:34:43.267Z,14.44
2022-10-16T21:39:42.274Z,14.38
2022-10-16T21:44:40.977Z,14.28
2022-10-16T21:49:41.190Z,14.23
2022-10-16T21:54:40.372Z,14.15
2022-10-16T21:59:39.162Z,14.14
2022-10-16T22:04:38.011Z,14.08
2022-10-16T22:09:38.245Z,14.07
2022-10-16T22:14:37.317Z,14.01
2022-10-16T22:19:36.102Z,14.02
2022-10-16T22:24:35.012Z,14.02
2022-10-16T22:29:35.221Z,13.99
2022-10-16T22:34:33.921Z,13.95
2022-10-16T22:39:32.772Z,13.94
2022-10-16T22:44:31.695Z,13.92
2022-10-16T22:49:31.872Z,13.87
2022-10-16T22:54:32.365Z,13.79
2022-10-16T22:59:31.229Z,13.48
2022-10-16T23:04:33.112Z,13.30
2022-10-16T23:09:32.062Z,13.32
2022-10-16T23:14:30.858Z,13.29
2022-10-16T23:19:31.208Z,13.23
2022-10-16T23:24:31.824Z,13.17
2022-10-16T23:29:30.771Z,13.08
2022-10-16T23:34:29.617Z,13.05
2022-10-16T23:39:29.873Z,13.00
2022-10-16T23:44:28.636Z,12.98
2022-10-16T23:49:27.410Z,12.97
2022-10-16T23:54:26.186Z,12.97
2022-10-16T23:59:26.389Z,12.94
